Pagrindinis puslapis
METAR-TAF:

METAR-TAF

Oro uostai :

Karpathos, Graikija

platuma: 35-24-51N, ilguma: 027-08-54E, Aukštis: 6 m

Dabartinis oras

Ataskaita buvo paskelbta 32 minutes, ne 03:00 UTC
Vėjas 18 kt iš Vakarų/Šiaurės Vakarų
Temperatūra 15°C
Drėgmė 48%
Slėgis 1015 hPa

METAR: LGKP 010300Z AUTO 30018KT //// // ////// 15/04 Q1015 RERA

Laikas: 05:32 (03:32 UTC)

Prognozė

Ataskaita buvo paskelbta 1 valandą ir 32 minutes, ne 02:00 UTC
Prognozė galioja nuo 01 metu 03 UTC su 01 metu 12 UTC
Vėjas 20 kt iš Vakarų/Šiaurės Vakarų su gūsio iki 30 kt
Matomumas 10 km arba daugiau
Išsisklaidę debesys ne aukštis 1800 ft

TAF: LGKP 010200Z 0103/0112 30020G30KT 9999 SCT018

Orai ataskaitas ir orų prognozės (METAR, TAF).

turimą stotys yra geltonos ir raudonos taškus žemėlapyje.

Perkelti pele per norėdami pamatyti stoties vardą.

Tada spustelėkite, norėdami matyti oro stebėjimo ir prognozės.

Norėdami pakeisti žemėlapį: spustelėkite ant žalios mygtukų su juodo kryžiaus žemyn,; žalią mygtuką su brūkšneliu, jei norite nutolinti; arba žalių rodyklių gretimoms žemėlapius.


METAR-TAF: